PWSweather.com
Personal Weather Stations
Station Observations
N9CXKWX1
Lake Beulah Mill Lake West Shore, Mukwonago, WI 53149

Lake Beulah Mill Lake West ShoreMukwonago, WI 53149

Lat: 42.837, Lon: -88.386

Elevation: 835

Station Type: LaCrosse WS-2310

Latest ConditionsUpdated 8:01:27 PM CDT Saturday, Oct 21, 2017
Currently Today's Max Today's Min Today's Average
Temperature 70.3°F21.3°C 76.9°F24.9°C 60.0°F15.6°C 67.5°F19.7°C
Dew Point 61.0°F16.1°C 61.0°F16.1°C 50.2°F10.1°C 55.2°F12.9°C
Winds 2.9 mph SSW4.7 kmh SSW 9.1 mph SE14.6 kmh SE - 2.8 mph 4.5 kmh
Wind Gusts 7.0 mph11.3 kmh 21.0 mph33.8 kmh - -
Humidity 72% 74% 56% 65%
Pressure 29.92 in1013.2 mb 29.98 in1015.2 mb 29.88 in1011.9 mb -
Hour Temp Dew Point Humidity Winds Wind Gusts Pressure Precip Precip Rate Daily Precip Total
08:01 PM 70.3°F21.3°C 61.0°F16.1°C 72% 2.9 mph SSW4.7 kmh SSW 7.0 mph11.3 kmh 29.92 in1013.2 mb 0.00 in0.0 mm 0.00 in0.0 mm 0.00 in0.0 mm
07:56 PM 70.5°F21.4°C 60.8°F16.0°C 71% 2.6 mph S4.2 kmh S 9.0 mph14.5 kmh 29.92 in1013.2 mb 0.00 in0.0 mm 0.00 in0.0 mm 0.00 in0.0 mm
07:51 PM 70.6°F21.4°C 60.9°F16.1°C 71% 3.8 mph S6.1 kmh S 9.0 mph14.5 kmh 29.92 in1013.2 mb 0.00 in0.0 mm 0.00 in0.0 mm 0.00 in0.0 mm
07:46 PM 70.6°F21.4°C 60.9°F16.1°C 71% 3.7 mph SSE6.0 kmh SSE 9.0 mph14.5 kmh 29.92 in1013.2 mb 0.00 in0.0 mm 0.00 in0.0 mm 0.00 in0.0 mm
07:41 PM 70.5°F21.4°C 60.8°F16.0°C 71% 2.4 mph S3.9 kmh S 7.0 mph11.3 kmh 29.92 in1013.2 mb 0.00 in0.0 mm 0.00 in0.0 mm 0.00 in0.0 mm
07:36 PM 70.5°F21.4°C 60.8°F16.0°C 71% 3.6 mph SE5.8 kmh SE 7.0 mph11.3 kmh 29.92 in1013.2 mb 0.00 in0.0 mm 0.00 in0.0 mm 0.00 in0.0 mm
07:31 PM 70.4°F21.3°C 60.7°F15.9°C 71% 2.0 mph S3.2 kmh S 7.0 mph11.3 kmh 29.92 in1013.2 mb 0.00 in0.0 mm 0.00 in0.0 mm 0.00 in0.0 mm
07:26 PM 70.4°F21.3°C 60.7°F15.9°C 71% 2.5 mph SSE4.0 kmh SSE 7.0 mph11.3 kmh 29.92 in1013.2 mb 0.00 in0.0 mm 0.00 in0.0 mm 0.00 in0.0 mm
07:21 PM 70.4°F21.3°C 60.7°F15.9°C 71% 2.3 mph SSE3.7 kmh SSE 5.0 mph8.0 kmh 29.92 in1013.2 mb 0.00 in0.0 mm 0.00 in0.0 mm 0.00 in0.0 mm
07:16 PM 70.4°F21.3°C 60.3°F15.7°C 70% 2.5 mph SSE4.0 kmh SSE 6.0 mph9.7 kmh 29.92 in1013.2 mb 0.00 in0.0 mm 0.00 in0.0 mm 0.00 in0.0 mm
07:11 PM 70.5°F21.4°C 60.4°F15.8°C 70% 2.7 mph S4.3 kmh S 6.0 mph9.7 kmh 29.91 in1012.9 mb 0.00 in0.0 mm 0.00 in0.0 mm 0.00 in0.0 mm
07:06 PM 70.7°F21.5°C 60.2°F15.7°C 69% 1.0 mph SW1.6 kmh SW 5.0 mph8.0 kmh 29.91 in1012.9 mb 0.00 in0.0 mm 0.00 in0.0 mm 0.00 in0.0 mm
07:01 PM 70.8°F21.6°C 60.3°F15.7°C 69% 2.6 mph SW4.2 kmh SW 5.0 mph8.0 kmh 29.91 in1012.9 mb 0.00 in0.0 mm 0.00 in0.0 mm 0.00 in0.0 mm
06:56 PM 70.9°F21.6°C 60.4°F15.8°C 69% 2.2 mph SSW3.5 kmh SSW 7.0 mph11.3 kmh 29.91 in1012.9 mb 0.00 in0.0 mm 0.00 in0.0 mm 0.00 in0.0 mm
06:51 PM 70.9°F21.6°C 60.0°F15.6°C 68% 1.4 mph S2.3 kmh S 7.0 mph11.3 kmh 29.91 in1012.9 mb 0.00 in0.0 mm 0.00 in0.0 mm 0.00 in0.0 mm
06:46 PM 70.9°F21.6°C 59.8°F15.4°C 68% 1.8 mph SE2.9 kmh SE 4.0 mph6.4 kmh 29.91 in1012.9 mb 0.00 in0.0 mm 0.00 in0.0 mm 0.00 in0.0 mm
06:41 PM 70.9°F21.6°C 59.8°F15.4°C 68% 1.9 mph S3.1 kmh S 5.0 mph8.0 kmh 29.91 in1012.9 mb 0.00 in0.0 mm 0.00 in0.0 mm 0.00 in0.0 mm
06:36 PM 70.8°F21.6°C 59.7°F15.4°C 68% 1.8 mph SSE2.9 kmh SSE 5.0 mph8.0 kmh 29.91 in1012.9 mb 0.00 in0.0 mm 0.00 in0.0 mm 0.00 in0.0 mm
06:31 PM 70.8°F21.6°C 59.3°F15.2°C 67% 1.2 mph SE1.9 kmh SE 3.0 mph4.8 kmh 29.91 in1012.9 mb 0.00 in0.0 mm 0.00 in0.0 mm 0.00 in0.0 mm
06:26 PM 71.0°F21.7°C 59.5°F15.3°C 67% 1.6 mph SE2.6 kmh SE 3.0 mph4.8 kmh 29.91 in1012.9 mb 0.00 in0.0 mm 0.00 in0.0 mm 0.00 in0.0 mm
06:21 PM 71.2°F21.8°C 59.7°F15.4°C 67% Calm Calm 2.0 mph3.2 kmh 29.90 in1012.5 mb 0.00 in0.0 mm 0.00 in0.0 mm 0.00 in0.0 mm
06:16 PM 71.5°F21.9°C 59.5°F15.3°C 66% 1.3 mph SE2.1 kmh SE 6.0 mph9.7 kmh 29.90 in1012.5 mb 0.00 in0.0 mm 0.00 in0.0 mm 0.00 in0.0 mm
06:11 PM 71.7°F22.1°C 59.9°F15.5°C 66% 2.7 mph SE4.3 kmh SE 6.0 mph9.7 kmh 29.90 in1012.5 mb 0.00 in0.0 mm 0.00 in0.0 mm 0.00 in0.0 mm
06:06 PM 71.9°F22.2°C 59.7°F15.4°C 65% 1.0 mph SE1.6 kmh SE 6.0 mph9.7 kmh 29.90 in1012.5 mb 0.00 in0.0 mm 0.00 in0.0 mm 0.00 in0.0 mm
06:01 PM 72.1°F22.3°C 59.5°F15.3°C 64% 2.4 mph SE3.9 kmh SE 6.0 mph9.7 kmh 29.90 in1012.5 mb 0.00 in0.0 mm 0.00 in0.0 mm 0.00 in0.0 mm
05:56 PM 72.4°F22.4°C 59.7°F15.4°C 64% 2.4 mph SE3.9 kmh SE 8.0 mph12.9 kmh 29.90 in1012.5 mb 0.00 in0.0 mm 0.00 in0.0 mm 0.00 in0.0 mm
05:51 PM 72.7°F22.6°C 59.6°F15.3°C 63% 4.5 mph SE7.2 kmh SE 8.0 mph12.9 kmh 29.89 in1012.2 mb 0.00 in0.0 mm 0.00 in0.0 mm 0.00 in0.0 mm
05:46 PM 72.9°F22.7°C 59.8°F15.4°C 63% 3.3 mph ESE5.3 kmh ESE 5.0 mph8.0 kmh 29.89 in1012.2 mb 0.00 in0.0 mm 0.00 in0.0 mm 0.00 in0.0 mm
05:41 PM 73.1°F22.8°C 59.8°F15.4°C 63% 2.7 mph SSE4.3 kmh SSE 6.0 mph9.7 kmh 29.89 in1012.2 mb 0.00 in0.0 mm 0.00 in0.0 mm 0.00 in0.0 mm
05:36 PM 73.4°F23.0°C 59.6°F15.3°C 62% 1.8 mph SE2.9 kmh SE 7.0 mph11.3 kmh 29.89 in1012.2 mb 0.00 in0.0 mm 0.00 in0.0 mm 0.00 in0.0 mm
05:31 PM 73.6°F23.1°C 60.0°F15.6°C 62% 2.8 mph SSE4.5 kmh SSE 7.0 mph11.3 kmh 29.89 in1012.2 mb 0.00 in0.0 mm 0.00 in0.0 mm 0.00 in0.0 mm
05:26 PM 73.8°F23.2°C 60.6°F15.9°C 63% 2.4 mph SE3.9 kmh SE 13.0 mph20.9 kmh 29.89 in1012.2 mb 0.00 in0.0 mm 0.00 in0.0 mm 0.00 in0.0 mm
05:20 PM 74.1°F23.4°C 60.5°F15.8°C 62% 1.5 mph SE2.4 kmh SE 13.0 mph20.9 kmh 29.89 in1012.2 mb 0.00 in0.0 mm 0.00 in0.0 mm 0.00 in0.0 mm
05:16 PM 74.4°F23.6°C 60.3°F15.7°C 61% 2.3 mph SE3.7 kmh SE 13.0 mph20.9 kmh 29.89 in1012.2 mb 0.00 in0.0 mm 0.00 in0.0 mm 0.00 in0.0 mm
05:10 PM 74.7°F23.7°C 60.4°F15.8°C 61% 4.5 mph SE7.2 kmh SE 19.0 mph30.6 kmh 29.88 in1011.9 mb 0.00 in0.0 mm 0.00 in0.0 mm 0.00 in0.0 mm
05:05 PM 75.0°F23.9°C 60.4°F15.8°C 60% 5.2 mph SE8.4 kmh SE 19.0 mph30.6 kmh 29.88 in1011.9 mb 0.00 in0.0 mm 0.00 in0.0 mm 0.00 in0.0 mm
05:00 PM 75.1°F23.9°C 60.5°F15.8°C 60% 4.4 mph SE7.1 kmh SE 14.0 mph22.5 kmh 29.88 in1011.9 mb 0.00 in0.0 mm 0.00 in0.0 mm 0.00 in0.0 mm
04:55 PM 75.2°F24.0°C 60.1°F15.6°C 59% 3.7 mph SE6.0 kmh SE 13.0 mph20.9 kmh 29.88 in1011.9 mb 0.00 in0.0 mm 0.00 in0.0 mm 0.00 in0.0 mm
04:50 PM 75.2°F24.0°C 60.1°F15.6°C 59% 3.0 mph S4.8 kmh S 9.0 mph14.5 kmh 29.88 in1011.9 mb 0.00 in0.0 mm 0.00 in0.0 mm 0.00 in0.0 mm
04:45 PM 75.3°F24.1°C 60.2°F15.7°C 59% 3.3 mph SE5.3 kmh SE 9.0 mph14.5 kmh 29.89 in1012.2 mb 0.00 in0.0 mm 0.00 in0.0 mm 0.00 in0.0 mm
04:40 PM 75.3°F24.1°C 60.2°F15.7°C 59% 2.9 mph SE4.7 kmh SE 7.0 mph11.3 kmh 29.88 in1011.9 mb 0.00 in0.0 mm 0.00 in0.0 mm 0.00 in0.0 mm
04:35 PM 75.5°F24.2°C 60.4°F15.8°C 59% 3.0 mph S4.8 kmh S 10.0 mph16.1 kmh 29.88 in1011.9 mb 0.00 in0.0 mm 0.00 in0.0 mm 0.00 in0.0 mm
04:30 PM 75.6°F24.2°C 59.8°F15.4°C 58% 3.4 mph S5.5 kmh S 10.0 mph16.1 kmh 29.89 in1012.2 mb 0.00 in0.0 mm 0.00 in0.0 mm 0.00 in0.0 mm
04:25 PM 75.7°F24.3°C 60.1°F15.6°C 58% 3.8 mph SE6.1 kmh SE 11.0 mph17.7 kmh 29.88 in1011.9 mb 0.00 in0.0 mm 0.00 in0.0 mm 0.00 in0.0 mm
04:20 PM 75.8°F24.3°C 60.2°F15.7°C 58% 3.2 mph SSE5.1 kmh SSE 11.0 mph17.7 kmh 29.88 in1011.9 mb 0.00 in0.0 mm 0.00 in0.0 mm 0.00 in0.0 mm
04:15 PM 75.9°F24.4°C 60.1°F15.6°C 58% 2.7 mph S4.3 kmh S 11.0 mph17.7 kmh 29.88 in1011.9 mb 0.00 in0.0 mm 0.00 in0.0 mm 0.00 in0.0 mm
04:10 PM 75.9°F24.4°C 59.8°F15.4°C 57% 2.1 mph S3.4 kmh S 6.0 mph9.7 kmh 29.88 in1011.9 mb 0.00 in0.0 mm 0.00 in0.0 mm 0.00 in0.0 mm
04:05 PM 75.7°F24.3°C 59.6°F15.3°C 57% 2.4 mph SW3.9 kmh SW 10.0 mph16.1 kmh 29.88 in1011.9 mb 0.00 in0.0 mm 0.00 in0.0 mm 0.00 in0.0 mm
04:00 PM 75.8°F24.3°C 59.7°F15.4°C 57% 4.0 mph SSW6.4 kmh SSW 12.0 mph19.3 kmh 29.88 in1011.9 mb 0.00 in0.0 mm 0.00 in0.0 mm 0.00 in0.0 mm
03:55 PM 75.9°F24.4°C 59.8°F15.4°C 57% 4.3 mph S6.9 kmh S 12.0 mph19.3 kmh 29.88 in1011.9 mb 0.00 in0.0 mm 0.00 in0.0 mm 0.00 in0.0 mm
03:50 PM 76.0°F24.4°C 60.4°F15.8°C 58% 2.6 mph S4.2 kmh S 15.0 mph24.1 kmh 29.89 in1012.2 mb 0.00 in0.0 mm 0.00 in0.0 mm 0.00 in0.0 mm
03:45 PM 76.1°F24.5°C 59.9°F15.5°C 57% 2.9 mph SSE4.7 kmh SSE 18.0 mph29.0 kmh 29.88 in1011.9 mb 0.00 in0.0 mm 0.00 in0.0 mm 0.00 in0.0 mm
03:40 PM 76.2°F24.6°C 60.0°F15.6°C 57% 8.7 mph SSE14.0 kmh SSE 18.0 mph29.0 kmh 29.89 in1012.2 mb 0.00 in0.0 mm 0.00 in0.0 mm 0.00 in0.0 mm
03:35 PM 76.6°F24.8°C 60.4°F15.8°C 57% 6.3 mph SE10.1 kmh SE 21.0 mph33.8 kmh 29.88 in1011.9 mb 0.00 in0.0 mm 0.00 in0.0 mm 0.00 in0.0 mm
03:30 PM 76.9°F24.9°C 60.7°F15.9°C 57% 9.1 mph SE14.6 kmh SE 21.0 mph33.8 kmh 29.89 in1012.2 mb 0.00 in0.0 mm 0.00 in0.0 mm 0.00 in0.0 mm
03:25 PM 76.9°F24.9°C 60.2°F15.7°C 56% 3.7 mph SE6.0 kmh SE 10.0 mph16.1 kmh 29.89 in1012.2 mb 0.00 in0.0 mm 0.00 in0.0 mm 0.00 in0.0 mm
03:20 PM 76.7°F24.8°C 60.0°F15.6°C 56% 3.5 mph SSW5.6 kmh SSW 10.0 mph16.1 kmh 29.88 in1011.9 mb 0.00 in0.0 mm 0.00 in0.0 mm 0.00 in0.0 mm
03:15 PM 76.4°F24.7°C 59.7°F15.4°C 56% 5.4 mph SSW8.7 kmh SSW 10.0 mph16.1 kmh 29.89 in1012.2 mb 0.00 in0.0 mm 0.00 in0.0 mm 0.00 in0.0 mm
03:10 PM 75.9°F24.4°C 59.3°F15.2°C 56% 2.6 mph S4.2 kmh S 7.0 mph11.3 kmh 29.89 in1012.2 mb 0.00 in0.0 mm 0.00 in0.0 mm 0.00 in0.0 mm
03:05 PM 75.5°F24.2°C 59.2°F15.1°C 57% 4.2 mph SW6.8 kmh SW 13.0 mph20.9 kmh 29.89 in1012.2 mb 0.00 in0.0 mm 0.00 in0.0 mm 0.00 in0.0 mm
03:00 PM 75.2°F24.0°C 58.9°F14.9°C 57% 5.2 mph S8.4 kmh S 13.0 mph20.9 kmh 29.89 in1012.2 mb 0.00 in0.0 mm 0.00 in0.0 mm 0.00 in0.0 mm
02:55 PM 75.1°F23.9°C 59.8°F15.4°C 59% 4.8 mph SSE7.7 kmh SSE 15.0 mph24.1 kmh 29.89 in1012.2 mb 0.00 in0.0 mm 0.00 in0.0 mm 0.00 in0.0 mm
02:50 PM 75.1°F23.9°C 59.3°F15.2°C 58% 6.5 mph SSE10.5 kmh SSE 15.0 mph24.1 kmh 29.89 in1012.2 mb 0.00 in0.0 mm 0.00 in0.0 mm 0.00 in0.0 mm
02:45 PM 75.0°F23.9°C 59.9°F15.5°C 59% 2.0 mph S3.2 kmh S 12.0 mph19.3 kmh 29.89 in1012.2 mb 0.00 in0.0 mm 0.00 in0.0 mm 0.00 in0.0 mm
02:40 PM 74.8°F23.8°C 59.7°F15.4°C 59% 3.6 mph S5.8 kmh S 10.0 mph16.1 kmh 29.89 in1012.2 mb 0.00 in0.0 mm 0.00 in0.0 mm 0.00 in0.0 mm
02:35 PM 74.6°F23.7°C 59.3°F15.2°C 59% 3.1 mph SE5.0 kmh SE 14.0 mph22.5 kmh 29.89 in1012.2 mb 0.00 in0.0 mm 0.00 in0.0 mm 0.00 in0.0 mm
02:30 PM 74.2°F23.4°C 59.9°F15.5°C 61% 3.5 mph SE5.6 kmh SE 14.0 mph22.5 kmh 29.90 in1012.5 mb 0.00 in0.0 mm 0.00 in0.0 mm 0.00 in0.0 mm
02:25 PM 74.0°F23.3°C 59.7°F15.4°C 61% 3.7 mph S6.0 kmh S 14.0 mph22.5 kmh 29.90 in1012.5 mb 0.00 in0.0 mm 0.00 in0.0 mm 0.00 in0.0 mm
02:20 PM 73.9°F23.3°C 60.1°F15.6°C 62% 4.4 mph SE7.1 kmh SE 12.0 mph19.3 kmh 29.90 in1012.5 mb 0.00 in0.0 mm 0.00 in0.0 mm 0.00 in0.0 mm
02:15 PM 73.8°F23.2°C 59.5°F15.3°C 61% 3.7 mph SE6.0 kmh SE 12.0 mph19.3 kmh 29.90 in1012.5 mb 0.00 in0.0 mm 0.00 in0.0 mm 0.00 in0.0 mm
02:10 PM 73.6°F23.1°C 59.5°F15.3°C 61% 3.2 mph SSW5.1 kmh SSW 17.0 mph27.4 kmh 29.90 in1012.5 mb 0.00 in0.0 mm 0.00 in0.0 mm 0.00 in0.0 mm
02:05 PM 73.6°F23.1°C 59.5°F15.3°C 61% 8.6 mph SE13.8 kmh SE 17.0 mph27.4 kmh 29.90 in1012.5 mb 0.00 in0.0 mm 0.00 in0.0 mm 0.00 in0.0 mm
02:00 PM 73.7°F23.2°C 59.4°F15.2°C 61% 5.1 mph SE8.2 kmh SE 15.0 mph24.1 kmh 29.90 in1012.5 mb 0.00 in0.0 mm 0.00 in0.0 mm 0.00 in0.0 mm
01:55 PM 73.4°F23.0°C 59.1°F15.1°C 61% 2.7 mph S4.3 kmh S 10.0 mph16.1 kmh 29.90 in1012.5 mb 0.00 in0.0 mm 0.00 in0.0 mm 0.00 in0.0 mm
01:50 PM 73.1°F22.8°C 59.0°F15.0°C 61% 2.1 mph S3.4 kmh S 13.0 mph20.9 kmh 29.90 in1012.5 mb 0.00 in0.0 mm 0.00 in0.0 mm 0.00 in0.0 mm
01:45 PM 72.9°F22.7°C 58.9°F14.9°C 61% 5.2 mph S8.4 kmh S 13.0 mph20.9 kmh 29.91 in1012.9 mb 0.00 in0.0 mm 0.00 in0.0 mm 0.00 in0.0 mm
01:40 PM 72.8°F22.7°C 59.2°F15.1°C 62% 2.9 mph SSE4.7 kmh SSE 16.0 mph25.7 kmh 29.91 in1012.9 mb 0.00 in0.0 mm 0.00 in0.0 mm 0.00 in0.0 mm
01:35 PM 72.8°F22.7°C 59.2°F15.1°C 62% 7.9 mph SE12.7 kmh SE 16.0 mph25.7 kmh 29.91 in1012.9 mb 0.00 in0.0 mm 0.00 in0.0 mm 0.00 in0.0 mm
01:30 PM 72.6°F22.6°C 59.0°F15.0°C 62% 3.4 mph SE5.5 kmh SE 15.0 mph24.1 kmh 29.91 in1012.9 mb 0.00 in0.0 mm 0.00 in0.0 mm 0.00 in0.0 mm
01:25 PM 72.5°F22.5°C 58.9°F14.9°C 62% 3.9 mph SE6.3 kmh SE 15.0 mph24.1 kmh 29.91 in1012.9 mb 0.00 in0.0 mm 0.00 in0.0 mm 0.00 in0.0 mm
01:20 PM 72.3°F22.4°C 58.7°F14.8°C 62% 3.4 mph S5.5 kmh S 13.0 mph20.9 kmh 29.91 in1012.9 mb 0.00 in0.0 mm 0.00 in0.0 mm 0.00 in0.0 mm
01:15 PM 72.1°F22.3°C 58.6°F14.8°C 62% 2.8 mph SE4.5 kmh SE 13.0 mph20.9 kmh 29.91 in1012.9 mb 0.00 in0.0 mm 0.00 in0.0 mm 0.00 in0.0 mm
01:10 PM 72.1°F22.3°C 58.6°F14.8°C 62% 5.5 mph SSE8.9 kmh SSE 11.0 mph17.7 kmh 29.92 in1013.2 mb 0.00 in0.0 mm 0.00 in0.0 mm 0.00 in0.0 mm
01:05 PM 71.9°F22.2°C 58.8°F14.9°C 63% 4.5 mph SSE7.2 kmh SSE 13.0 mph20.9 kmh 29.92 in1013.2 mb 0.00 in0.0 mm 0.00 in0.0 mm 0.00 in0.0 mm
01:00 PM 71.5°F21.9°C 58.2°F14.6°C 63% 4.4 mph S7.1 kmh S 13.0 mph20.9 kmh 29.92 in1013.2 mb 0.00 in0.0 mm 0.00 in0.0 mm 0.00 in0.0 mm
12:55 PM 71.3°F21.8°C 57.6°F14.2°C 62% 3.7 mph S6.0 kmh S 15.0 mph24.1 kmh 29.92 in1013.2 mb 0.00 in0.0 mm 0.00 in0.0 mm 0.00 in0.0 mm
12:50 PM 71.1°F21.7°C 57.4°F14.1°C 62% 4.3 mph SSE6.9 kmh SSE 15.0 mph24.1 kmh 29.93 in1013.5 mb 0.00 in0.0 mm 0.00 in0.0 mm 0.00 in0.0 mm
12:45 PM 70.9°F21.6°C 57.7°F14.3°C 63% 3.2 mph S5.1 kmh S 11.0 mph17.7 kmh 29.93 in1013.5 mb 0.00 in0.0 mm 0.00 in0.0 mm 0.00 in0.0 mm
12:40 PM 70.7°F21.5°C 58.1°F14.5°C 64% 2.5 mph SE4.0 kmh SE 15.0 mph24.1 kmh 29.94 in1013.9 mb 0.00 in0.0 mm 0.00 in0.0 mm 0.00 in0.0 mm
12:35 PM 70.5°F21.4°C 57.5°F14.2°C 63% 4.6 mph S7.4 kmh S 15.0 mph24.1 kmh 29.94 in1013.9 mb 0.00 in0.0 mm 0.00 in0.0 mm 0.00 in0.0 mm
12:30 PM 70.3°F21.3°C 57.3°F14.1°C 63% 3.9 mph S6.3 kmh S 11.0 mph17.7 kmh 29.94 in1013.9 mb 0.00 in0.0 mm 0.00 in0.0 mm 0.00 in0.0 mm
12:25 PM 70.3°F21.3°C 57.3°F14.1°C 63% 5.3 mph S8.5 kmh S 11.0 mph17.7 kmh 29.94 in1013.9 mb 0.00 in0.0 mm 0.00 in0.0 mm 0.00 in0.0 mm
12:20 PM 70.1°F21.2°C 57.1°F13.9°C 63% 3.0 mph S4.8 kmh S 8.0 mph12.9 kmh 29.95 in1014.2 mb 0.00 in0.0 mm 0.00 in0.0 mm 0.00 in0.0 mm
12:15 PM 70.0°F21.1°C 57.5°F14.2°C 64% 3.1 mph S5.0 kmh S 7.0 mph11.3 kmh 29.95 in1014.2 mb 0.00 in0.0 mm 0.00 in0.0 mm 0.00 in0.0 mm
12:10 PM 69.6°F20.9°C 57.1°F13.9°C 64% 3.3 mph SSW5.3 kmh SSW 8.0 mph12.9 kmh 29.95 in1014.2 mb 0.00 in0.0 mm 0.00 in0.0 mm 0.00 in0.0 mm
12:05 PM 69.4°F20.8°C 56.9°F13.8°C 64% 2.5 mph S4.0 kmh S 12.0 mph19.3 kmh 29.95 in1014.2 mb 0.00 in0.0 mm 0.00 in0.0 mm 0.00 in0.0 mm
12:00 PM 69.2°F20.7°C 57.1°F13.9°C 65% 4.3 mph SW6.9 kmh SW 12.0 mph19.3 kmh 29.95 in1014.2 mb 0.00 in0.0 mm 0.00 in0.0 mm 0.00 in0.0 mm
11:55 AM 68.8°F20.4°C 57.2°F14.0°C 66% 2.1 mph S3.4 kmh S 11.0 mph17.7 kmh 29.96 in1014.6 mb 0.00 in0.0 mm 0.00 in0.0 mm 0.00 in0.0 mm
11:50 AM 68.6°F20.3°C 56.4°F13.6°C 65% 2.9 mph S4.7 kmh S 11.0 mph17.7 kmh 29.96 in1014.6 mb 0.00 in0.0 mm 0.00 in0.0 mm 0.00 in0.0 mm
11:45 AM 68.8°F20.4°C 56.6°F13.7°C 65% 3.4 mph SSE5.5 kmh SSE 9.0 mph14.5 kmh 29.96 in1014.6 mb 0.00 in0.0 mm 0.00 in0.0 mm 0.00 in0.0 mm
11:40 AM 68.8°F20.4°C 56.6°F13.7°C 65% 2.3 mph SSE3.7 kmh SSE 9.0 mph14.5 kmh 29.96 in1014.6 mb 0.00 in0.0 mm 0.00 in0.0 mm 0.00 in0.0 mm
11:35 AM 68.6°F20.3°C 56.4°F13.6°C 65% 4.1 mph S6.6 kmh S 9.0 mph14.5 kmh 29.96 in1014.6 mb 0.00 in0.0 mm 0.00 in0.0 mm 0.00 in0.0 mm
11:30 AM 68.4°F20.2°C 56.6°F13.7°C 66% 2.6 mph SSW4.2 kmh SSW 8.0 mph12.9 kmh 29.96 in1014.6 mb 0.00 in0.0 mm 0.00 in0.0 mm 0.00 in0.0 mm
11:25 AM 68.1°F20.1°C 56.5°F13.6°C 66% 2.8 mph S4.5 kmh S 12.0 mph19.3 kmh 29.96 in1014.6 mb 0.00 in0.0 mm 0.00 in0.0 mm 0.00 in0.0 mm
11:20 AM 68.0°F20.0°C 56.2°F13.4°C 66% 3.9 mph S6.3 kmh S 12.0 mph19.3 kmh 29.96 in1014.6 mb 0.00 in0.0 mm 0.00 in0.0 mm 0.00 in0.0 mm
11:15 AM 67.6°F19.8°C 56.4°F13.6°C 67% 3.8 mph SW6.1 kmh SW 10.0 mph16.1 kmh 29.96 in1014.6 mb 0.00 in0.0 mm 0.00 in0.0 mm 0.00 in0.0 mm
11:10 AM 67.1°F19.5°C 56.4°F13.6°C 68% 3.3 mph SW5.3 kmh SW 11.0 mph17.7 kmh 29.96 in1014.6 mb 0.00 in0.0 mm 0.00 in0.0 mm 0.00 in0.0 mm
11:05 AM 66.8°F19.3°C 55.9°F13.3°C 68% 5.5 mph SW8.9 kmh SW 11.0 mph17.7 kmh 29.96 in1014.6 mb 0.00 in0.0 mm 0.00 in0.0 mm 0.00 in0.0 mm
11:00 AM 66.4°F19.1°C 55.5°F13.1°C 68% 5.5 mph SSW8.9 kmh SSW 11.0 mph17.7 kmh 29.97 in1014.9 mb 0.00 in0.0 mm 0.00 in0.0 mm 0.00 in0.0 mm
10:54 AM 66.1°F18.9°C 55.6°F13.1°C 69% 2.7 mph S4.3 kmh S 9.0 mph14.5 kmh 29.97 in1014.9 mb 0.00 in0.0 mm 0.00 in0.0 mm 0.00 in0.0 mm
10:49 AM 65.9°F18.8°C 55.4°F13.0°C 69% 3.1 mph S5.0 kmh S 9.0 mph14.5 kmh 29.97 in1014.9 mb 0.00 in0.0 mm 0.00 in0.0 mm 0.00 in0.0 mm
10:44 AM 65.6°F18.7°C 55.2°F12.9°C 69% 2.8 mph SSW4.5 kmh SSW 7.0 mph11.3 kmh 29.97 in1014.9 mb 0.00 in0.0 mm 0.00 in0.0 mm 0.00 in0.0 mm
10:39 AM 65.2°F18.4°C 54.8°F12.7°C 69% 3.6 mph SSE5.8 kmh SSE 7.0 mph11.3 kmh 29.97 in1014.9 mb 0.00 in0.0 mm 0.00 in0.0 mm 0.00 in0.0 mm
10:34 AM 65.1°F18.4°C 54.7°F12.6°C 69% 2.2 mph S3.5 kmh S 9.0 mph14.5 kmh 29.97 in1014.9 mb 0.00 in0.0 mm 0.00 in0.0 mm 0.00 in0.0 mm
10:29 AM 65.0°F18.3°C 54.6°F12.6°C 69% 3.3 mph SSE5.3 kmh SSE 9.0 mph14.5 kmh 29.97 in1014.9 mb 0.00 in0.0 mm 0.00 in0.0 mm 0.00 in0.0 mm
10:24 AM 64.9°F18.3°C 54.6°F12.6°C 69% 3.9 mph S6.3 kmh S 15.0 mph24.1 kmh 29.97 in1014.9 mb 0.00 in0.0 mm 0.00 in0.0 mm 0.00 in0.0 mm
10:19 AM 64.8°F18.2°C 54.5°F12.5°C 69% 4.4 mph SSE7.1 kmh SSE 15.0 mph24.1 kmh 29.97 in1014.9 mb 0.00 in0.0 mm 0.00 in0.0 mm 0.00 in0.0 mm
10:14 AM 64.6°F18.1°C 54.4°F12.4°C 69% 3.0 mph SSE4.8 kmh SSE 9.0 mph14.5 kmh 29.97 in1014.9 mb 0.00 in0.0 mm 0.00 in0.0 mm 0.00 in0.0 mm
10:09 AM 64.2°F17.9°C 54.0°F12.2°C 69% 2.7 mph S4.3 kmh S 9.0 mph14.5 kmh 29.98 in1015.2 mb 0.00 in0.0 mm 0.00 in0.0 mm 0.00 in0.0 mm
10:04 AM 63.8°F17.7°C 54.0°F12.2°C 70% 2.1 mph S3.4 kmh S 8.0 mph12.9 kmh 29.98 in1015.2 mb 0.00 in0.0 mm 0.00 in0.0 mm 0.00 in0.0 mm
09:59 AM 63.5°F17.5°C 53.7°F12.1°C 70% 1.9 mph SSW3.1 kmh SSW 5.0 mph8.0 kmh 29.98 in1015.2 mb 0.00 in0.0 mm 0.00 in0.0 mm 0.00 in0.0 mm
09:54 AM 63.1°F17.3°C 53.3°F11.8°C 70% 1.7 mph S2.7 kmh S 8.0 mph12.9 kmh 29.98 in1015.2 mb 0.00 in0.0 mm 0.00 in0.0 mm 0.00 in0.0 mm
09:49 AM 62.9°F17.2°C 53.1°F11.7°C 70% 2.4 mph S3.9 kmh S 8.0 mph12.9 kmh 29.98 in1015.2 mb 0.00 in0.0 mm 0.00 in0.0 mm 0.00 in0.0 mm
09:44 AM 62.7°F17.1°C 52.9°F11.6°C 70% 3.6 mph SW5.8 kmh SW 6.0 mph9.7 kmh 29.98 in1015.2 mb 0.00 in0.0 mm 0.00 in0.0 mm 0.00 in0.0 mm
09:39 AM 62.5°F16.9°C 53.1°F11.7°C 71% 2.7 mph SSW4.3 kmh SSW 6.0 mph9.7 kmh 29.98 in1015.2 mb 0.00 in0.0 mm 0.00 in0.0 mm 0.00 in0.0 mm
09:34 AM 62.3°F16.8°C 52.9°F11.6°C 71% 1.8 mph S2.9 kmh S 7.0 mph11.3 kmh 29.98 in1015.2 mb 0.00 in0.0 mm 0.00 in0.0 mm 0.00 in0.0 mm
09:29 AM 62.2°F16.8°C 52.8°F11.6°C 71% 2.3 mph S3.7 kmh S 7.0 mph11.3 kmh 29.98 in1015.2 mb 0.00 in0.0 mm 0.00 in0.0 mm 0.00 in0.0 mm
09:24 AM 62.0°F16.7°C 52.6°F11.4°C 71% 2.4 mph S3.9 kmh S 6.0 mph9.7 kmh 29.98 in1015.2 mb 0.00 in0.0 mm 0.00 in0.0 mm 0.00 in0.0 mm
09:19 AM 61.9°F16.6°C 52.5°F11.4°C 71% 1.2 mph SSE1.9 kmh SSE 5.0 mph8.0 kmh 29.98 in1015.2 mb 0.00 in0.0 mm 0.00 in0.0 mm 0.00 in0.0 mm
09:14 AM 61.8°F16.6°C 52.4°F11.3°C 71% 1.9 mph SE3.1 kmh SE 7.0 mph11.3 kmh 29.98 in1015.2 mb 0.00 in0.0 mm 0.00 in0.0 mm 0.00 in0.0 mm
09:09 AM 61.7°F16.5°C 52.3°F11.3°C 71% 4.6 mph SE7.4 kmh SE 7.0 mph11.3 kmh 29.98 in1015.2 mb 0.00 in0.0 mm 0.00 in0.0 mm 0.00 in0.0 mm
09:04 AM 61.5°F16.4°C 52.1°F11.2°C 71% 1.7 mph SSE2.7 kmh SSE 5.0 mph8.0 kmh 29.98 in1015.2 mb 0.00 in0.0 mm 0.00 in0.0 mm 0.00 in0.0 mm
08:59 AM 61.3°F16.3°C 52.0°F11.1°C 71% 1.3 mph SSE2.1 kmh SSE 6.0 mph9.7 kmh 29.98 in1015.2 mb 0.00 in0.0 mm 0.00 in0.0 mm 0.00 in0.0 mm
08:54 AM 61.1°F16.2°C 51.8°F11.0°C 71% 1.9 mph S3.1 kmh S 6.0 mph9.7 kmh 29.98 in1015.2 mb 0.00 in0.0 mm 0.00 in0.0 mm 0.00 in0.0 mm
08:49 AM 60.9°F16.1°C 51.6°F10.9°C 71% 3.0 mph SSW4.8 kmh SSW 5.0 mph8.0 kmh 29.98 in1015.2 mb 0.00 in0.0 mm 0.00 in0.0 mm 0.00 in0.0 mm
08:44 AM 60.8°F16.0°C 51.5°F10.8°C 71% 2.3 mph S3.7 kmh S 5.0 mph8.0 kmh 29.98 in1015.2 mb 0.00 in0.0 mm 0.00 in0.0 mm 0.00 in0.0 mm
08:39 AM 60.7°F15.9°C 51.4°F10.8°C 71% 1.6 mph S2.6 kmh S 4.0 mph6.4 kmh 29.97 in1014.9 mb 0.00 in0.0 mm 0.00 in0.0 mm 0.00 in0.0 mm
08:34 AM 60.6°F15.9°C 51.3°F10.7°C 71% 2.5 mph S4.0 kmh S 6.0 mph9.7 kmh 29.97 in1014.9 mb 0.00 in0.0 mm 0.00 in0.0 mm 0.00 in0.0 mm
08:28 AM 60.5°F15.8°C 51.2°F10.7°C 71% 2.8 mph S4.5 kmh S 6.0 mph9.7 kmh 29.96 in1014.6 mb 0.00 in0.0 mm 0.00 in0.0 mm 0.00 in0.0 mm
08:23 AM 60.5°F15.8°C 51.2°F10.7°C 71% 2.4 mph S3.9 kmh S 7.0 mph11.3 kmh 29.96 in1014.6 mb 0.00 in0.0 mm 0.00 in0.0 mm 0.00 in0.0 mm
08:18 AM 60.6°F15.9°C 51.7°F10.9°C 72% 2.0 mph SSE3.2 kmh SSE 7.0 mph11.3 kmh 29.96 in1014.6 mb 0.00 in0.0 mm 0.00 in0.0 mm 0.00 in0.0 mm
08:14 AM 60.7°F15.9°C 51.4°F10.8°C 71% 3.3 mph SE5.3 kmh SE 7.0 mph11.3 kmh 29.96 in1014.6 mb 0.00 in0.0 mm 0.00 in0.0 mm 0.00 in0.0 mm
08:08 AM 60.9°F16.1°C 51.6°F10.9°C 71% Calm Calm 7.0 mph11.3 kmh 29.96 in1014.6 mb 0.00 in0.0 mm 0.00 in0.0 mm 0.00 in0.0 mm
08:03 AM 61.0°F16.1°C 51.7°F10.9°C 71% 2.9 mph SE4.7 kmh SE 7.0 mph11.3 kmh 29.96 in1014.6 mb 0.00 in0.0 mm 0.00 in0.0 mm 0.00 in0.0 mm
07:58 AM 61.2°F16.2°C 51.9°F11.1°C 71% 1.9 mph SE3.1 kmh SE 5.0 mph8.0 kmh 29.96 in1014.6 mb 0.00 in0.0 mm 0.00 in0.0 mm 0.00 in0.0 mm
07:54 AM 61.3°F16.3°C 51.6°F10.9°C 70% 1.8 mph S2.9 kmh S 5.0 mph8.0 kmh 29.96 in1014.6 mb 0.00 in0.0 mm 0.00 in0.0 mm 0.00 in0.0 mm
07:48 AM 61.4°F16.3°C 51.7°F10.9°C 70% 1.6 mph S2.6 kmh S 5.0 mph8.0 kmh 29.96 in1014.6 mb 0.00 in0.0 mm 0.00 in0.0 mm 0.00 in0.0 mm
07:43 AM 61.3°F16.3°C 51.6°F10.9°C 70% 1.2 mph S1.9 kmh S 5.0 mph8.0 kmh 29.96 in1014.6 mb 0.00 in0.0 mm 0.00 in0.0 mm 0.00 in0.0 mm
07:38 AM 61.3°F16.3°C 51.6°F10.9°C 70% 2.3 mph S3.7 kmh S 5.0 mph8.0 kmh 29.96 in1014.6 mb 0.00 in0.0 mm 0.00 in0.0 mm 0.00 in0.0 mm
07:33 AM 61.2°F16.2°C 51.5°F10.8°C 70% 2.3 mph SSE3.7 kmh SSE 9.0 mph14.5 kmh 29.96 in1014.6 mb 0.00 in0.0 mm 0.00 in0.0 mm 0.00 in0.0 mm
07:28 AM 61.1°F16.2°C 51.8°F11.0°C 71% 2.7 mph S4.3 kmh S 9.0 mph14.5 kmh 29.96 in1014.6 mb 0.00 in0.0 mm 0.00 in0.0 mm 0.00 in0.0 mm
07:23 AM 60.9°F16.1°C 51.6°F10.9°C 71% 1.9 mph SSW3.1 kmh SSW 7.0 mph11.3 kmh 29.96 in1014.6 mb 0.00 in0.0 mm 0.00 in0.0 mm 0.00 in0.0 mm
07:18 AM 60.8°F16.0°C 51.8°F11.0°C 72% 1.4 mph S2.3 kmh S 5.0 mph8.0 kmh 29.96 in1014.6 mb 0.00 in0.0 mm 0.00 in0.0 mm 0.00 in0.0 mm
07:13 AM 60.7°F15.9°C 51.7°F10.9°C 72% 2.5 mph S4.0 kmh S 4.0 mph6.4 kmh 29.97 in1014.9 mb 0.00 in0.0 mm 0.00 in0.0 mm 0.00 in0.0 mm
07:08 AM 60.5°F15.8°C 51.9°F11.1°C 73% 2.0 mph S3.2 kmh S 4.0 mph6.4 kmh 29.97 in1014.9 mb 0.00 in0.0 mm 0.00 in0.0 mm 0.00 in0.0 mm
07:03 AM 60.3°F15.7°C 51.7°F10.9°C 73% 1.9 mph S3.1 kmh S 3.0 mph4.8 kmh 29.97 in1014.9 mb 0.00 in0.0 mm 0.00 in0.0 mm 0.00 in0.0 mm
06:58 AM 60.2°F15.7°C 51.6°F10.9°C 73% 2.0 mph S3.2 kmh S 4.0 mph6.4 kmh 29.97 in1014.9 mb 0.00 in0.0 mm 0.00 in0.0 mm 0.00 in0.0 mm
06:53 AM 60.0°F15.6°C 51.8°F11.0°C 74% 2.1 mph S3.4 kmh S 4.0 mph6.4 kmh 29.96 in1014.6 mb 0.00 in0.0 mm 0.00 in0.0 mm 0.00 in0.0 mm
06:48 AM 60.0°F15.6°C 51.8°F11.0°C 74% 1.3 mph S2.1 kmh S 4.0 mph6.4 kmh 29.96 in1014.6 mb 0.00 in0.0 mm 0.00 in0.0 mm 0.00 in0.0 mm
06:43 AM 60.2°F15.7°C 51.6°F10.9°C 73% Calm Calm 2.0 mph3.2 kmh 29.96 in1014.6 mb 0.00 in0.0 mm 0.00 in0.0 mm 0.00 in0.0 mm
06:38 AM 60.4°F15.8°C 51.8°F11.0°C 73% 2.0 mph SE3.2 kmh SE 2.0 mph3.2 kmh 29.96 in1014.6 mb 0.00 in0.0 mm 0.00 in0.0 mm 0.00 in0.0 mm
06:33 AM 60.5°F15.8°C 51.9°F11.1°C 73% Calm Calm 5.0 mph8.0 kmh 29.96 in1014.6 mb 0.00 in0.0 mm 0.00 in0.0 mm 0.00 in0.0 mm
06:28 AM 60.8°F16.0°C 52.2°F11.2°C 73% 1.3 mph SSE2.1 kmh SSE 5.0 mph8.0 kmh 29.96 in1014.6 mb 0.00 in0.0 mm 0.00 in0.0 mm 0.00 in0.0 mm
06:23 AM 60.9°F16.1°C 51.9°F11.1°C 72% 1.5 mph SSE2.4 kmh SSE 5.0 mph8.0 kmh 29.96 in1014.6 mb 0.00 in0.0 mm 0.00 in0.0 mm 0.00 in0.0 mm
06:18 AM 61.1°F16.2°C 52.1°F11.2°C 72% 1.7 mph SSE2.7 kmh SSE 4.0 mph6.4 kmh 29.96 in1014.6 mb 0.00 in0.0 mm 0.00 in0.0 mm 0.00 in0.0 mm
06:13 AM 61.3°F16.3°C 52.0°F11.1°C 71% 1.6 mph SSE2.6 kmh SSE 4.0 mph6.4 kmh 29.96 in1014.6 mb 0.00 in0.0 mm 0.00 in0.0 mm 0.00 in0.0 mm
06:08 AM 61.5°F16.4°C 52.1°F11.2°C 71% 2.7 mph S4.3 kmh S 4.0 mph6.4 kmh 29.96 in1014.6 mb 0.00 in0.0 mm 0.00 in0.0 mm 0.00 in0.0 mm
06:03 AM 61.7°F16.5°C 52.0°F11.1°C 70% 1.3 mph S2.1 kmh S 3.0 mph4.8 kmh 29.97 in1014.9 mb 0.00 in0.0 mm 0.00 in0.0 mm 0.00 in0.0 mm
05:58 AM 61.9°F16.6°C 52.2°F11.2°C 70% 1.5 mph SSE2.4 kmh SSE 3.0 mph4.8 kmh 29.97 in1014.9 mb 0.00 in0.0 mm 0.00 in0.0 mm 0.00 in0.0 mm
05:53 AM 62.1°F16.7°C 52.3°F11.3°C 70% Calm Calm 5.0 mph8.0 kmh 29.97 in1014.9 mb 0.00 in0.0 mm 0.00 in0.0 mm 0.00 in0.0 mm
05:48 AM 62.2°F16.8°C 52.1°F11.2°C 69% 1.9 mph S3.1 kmh S 5.0 mph8.0 kmh 29.96 in1014.6 mb 0.00 in0.0 mm 0.00 in0.0 mm 0.00 in0.0 mm
05:43 AM 62.4°F16.9°C 52.2°F11.2°C 69% 1.3 mph S2.1 kmh S 3.0 mph4.8 kmh 29.97 in1014.9 mb 0.00 in0.0 mm 0.00 in0.0 mm 0.00 in0.0 mm
05:38 AM 62.6°F17.0°C 52.0°F11.1°C 68% 1.6 mph S2.6 kmh S 4.0 mph6.4 kmh 29.97 in1014.9 mb 0.00 in0.0 mm 0.00 in0.0 mm 0.00 in0.0 mm
05:33 AM 62.8°F17.1°C 52.2°F11.2°C 68% 1.7 mph S2.7 kmh S 4.0 mph6.4 kmh 29.97 in1014.9 mb 0.00 in0.0 mm 0.00 in0.0 mm 0.00 in0.0 mm
05:28 AM 62.9°F17.2°C 52.3°F11.3°C 68% 1.7 mph SSW2.7 kmh SSW 3.0 mph4.8 kmh 29.97 in1014.9 mb 0.00 in0.0 mm 0.00 in0.0 mm 0.00 in0.0 mm
05:23 AM 63.1°F17.3°C 52.1°F11.2°C 67% 1.8 mph SW2.9 kmh SW 5.0 mph8.0 kmh 29.97 in1014.9 mb 0.00 in0.0 mm 0.00 in0.0 mm 0.00 in0.0 mm
05:18 AM 63.1°F17.3°C 52.1°F11.2°C 67% 2.7 mph SSW4.3 kmh SSW 5.0 mph8.0 kmh 29.97 in1014.9 mb 0.00 in0.0 mm 0.00 in0.0 mm 0.00 in0.0 mm
05:13 AM 63.2°F17.3°C 52.2°F11.2°C 67% 2.1 mph SE3.4 kmh SE 6.0 mph9.7 kmh 29.97 in1014.9 mb 0.00 in0.0 mm 0.00 in0.0 mm 0.00 in0.0 mm
05:08 AM 63.3°F17.4°C 52.3°F11.3°C 67% 3.3 mph SE5.3 kmh SE 6.0 mph9.7 kmh 29.97 in1014.9 mb 0.00 in0.0 mm 0.00 in0.0 mm 0.00 in0.0 mm
05:03 AM 63.5°F17.5°C 52.1°F11.2°C 66% 1.9 mph SE3.1 kmh SE 5.0 mph8.0 kmh 29.97 in1014.9 mb 0.00 in0.0 mm 0.00 in0.0 mm 0.00 in0.0 mm
04:58 AM 63.6°F17.6°C 52.2°F11.2°C 66% 1.8 mph SSE2.9 kmh SSE 7.0 mph11.3 kmh 29.97 in1014.9 mb 0.00 in0.0 mm 0.00 in0.0 mm 0.00 in0.0 mm
04:53 AM 63.7°F17.6°C 52.3°F11.3°C 66% 3.0 mph SE4.8 kmh SE 10.0 mph16.1 kmh 29.97 in1014.9 mb 0.00 in0.0 mm 0.00 in0.0 mm 0.00 in0.0 mm
04:48 AM 63.8°F17.7°C 52.4°F11.3°C 66% 3.1 mph SSE5.0 kmh SSE 10.0 mph16.1 kmh 29.97 in1014.9 mb 0.00 in0.0 mm 0.00 in0.0 mm 0.00 in0.0 mm
04:43 AM 63.9°F17.7°C 52.1°F11.2°C 65% 2.3 mph SSE3.7 kmh SSE 5.0 mph8.0 kmh 29.97 in1014.9 mb 0.00 in0.0 mm 0.00 in0.0 mm 0.00 in0.0 mm
04:38 AM 64.0°F17.8°C 52.2°F11.2°C 65% 2.2 mph SSE3.5 kmh SSE 5.0 mph8.0 kmh 29.97 in1014.9 mb 0.00 in0.0 mm 0.00 in0.0 mm 0.00 in0.0 mm
04:33 AM 64.0°F17.8°C 51.7°F10.9°C 64% 1.9 mph SSW3.1 kmh SSW 5.0 mph8.0 kmh 29.97 in1014.9 mb 0.00 in0.0 mm 0.00 in0.0 mm 0.00 in0.0 mm
04:28 AM 64.0°F17.8°C 51.7°F10.9°C 64% 2.1 mph S3.4 kmh S 6.0 mph9.7 kmh 29.97 in1014.9 mb 0.00 in0.0 mm 0.00 in0.0 mm 0.00 in0.0 mm
04:23 AM 63.9°F17.7°C 51.6°F10.9°C 64% 3.2 mph S5.1 kmh S 6.0 mph9.7 kmh 29.97 in1014.9 mb 0.00 in0.0 mm 0.00 in0.0 mm 0.00 in0.0 mm
04:18 AM 63.9°F17.7°C 51.6°F10.9°C 64% 1.8 mph S2.9 kmh S 7.0 mph11.3 kmh 29.97 in1014.9 mb 0.00 in0.0 mm 0.00 in0.0 mm 0.00 in0.0 mm
04:13 AM 63.9°F17.7°C 51.6°F10.9°C 64% 2.2 mph SSW3.5 kmh SSW 7.0 mph11.3 kmh 29.97 in1014.9 mb 0.00 in0.0 mm 0.00 in0.0 mm 0.00 in0.0 mm
04:08 AM 64.0°F17.8°C 51.7°F10.9°C 64% 3.0 mph SSE4.8 kmh SSE 6.0 mph9.7 kmh 29.97 in1014.9 mb 0.00 in0.0 mm 0.00 in0.0 mm 0.00 in0.0 mm
04:02 AM 64.0°F17.8°C 51.7°F10.9°C 64% 3.3 mph S5.3 kmh S 6.0 mph9.7 kmh 29.97 in1014.9 mb 0.00 in0.0 mm 0.00 in0.0 mm 0.00 in0.0 mm
03:56 AM 64.1°F17.8°C 51.4°F10.8°C 63% Calm Calm 4.0 mph6.4 kmh 29.97 in1014.9 mb 0.00 in0.0 mm 0.00 in0.0 mm 0.00 in0.0 mm
03:51 AM 64.3°F17.9°C 51.2°F10.7°C 62% 1.5 mph SSW2.4 kmh SSW 6.0 mph9.7 kmh 29.97 in1014.9 mb 0.00 in0.0 mm 0.00 in0.0 mm 0.00 in0.0 mm
03:46 AM 64.4°F18.0°C 51.3°F10.7°C 62% 2.5 mph SSW4.0 kmh SSW 6.0 mph9.7 kmh 29.97 in1014.9 mb 0.00 in0.0 mm 0.00 in0.0 mm 0.00 in0.0 mm
03:41 AM 64.5°F18.1°C 50.9°F10.5°C 61% 2.6 mph S4.2 kmh S 10.0 mph16.1 kmh 29.97 in1014.9 mb 0.00 in0.0 mm 0.00 in0.0 mm 0.00 in0.0 mm
03:36 AM 64.7°F18.2°C 51.1°F10.6°C 61% 2.2 mph SSE3.5 kmh SSE 10.0 mph16.1 kmh 29.97 in1014.9 mb 0.00 in0.0 mm 0.00 in0.0 mm 0.00 in0.0 mm
03:31 AM 64.7°F18.2°C 50.6°F10.3°C 60% 3.8 mph SSW6.1 kmh SSW 10.0 mph16.1 kmh 29.97 in1014.9 mb 0.00 in0.0 mm 0.00 in0.0 mm 0.00 in0.0 mm
03:26 AM 64.8°F18.2°C 50.7°F10.4°C 60% 3.3 mph SE5.3 kmh SE 7.0 mph11.3 kmh 29.97 in1014.9 mb 0.00 in0.0 mm 0.00 in0.0 mm 0.00 in0.0 mm
03:21 AM 64.8°F18.2°C 50.3°F10.2°C 59% 3.0 mph S4.8 kmh S 7.0 mph11.3 kmh 29.97 in1014.9 mb 0.00 in0.0 mm 0.00 in0.0 mm 0.00 in0.0 mm
03:16 AM 64.8°F18.2°C 50.3°F10.2°C 59% 3.1 mph SSE5.0 kmh SSE 7.0 mph11.3 kmh 29.97 in1014.9 mb 0.00 in0.0 mm 0.00 in0.0 mm 0.00 in0.0 mm
03:11 AM 64.7°F18.2°C 50.2°F10.1°C 59% 2.4 mph SW3.9 kmh SW 9.0 mph14.5 kmh 29.98 in1015.2 mb 0.00 in0.0 mm 0.00 in0.0 mm 0.00 in0.0 mm
03:06 AM 64.7°F18.2°C 50.6°F10.3°C 60% 3.7 mph SE6.0 kmh SE 9.0 mph14.5 kmh 29.97 in1014.9 mb 0.00 in0.0 mm 0.00 in0.0 mm 0.00 in0.0 mm
03:01 AM 64.6°F18.1°C 50.5°F10.3°C 60% 2.5 mph SSE4.0 kmh SSE 5.0 mph8.0 kmh 29.98 in1015.2 mb 0.00 in0.0 mm 0.00 in0.0 mm 0.00 in0.0 mm
02:56 AM 64.7°F18.2°C 50.6°F10.3°C 60% 1.6 mph SSE2.6 kmh SSE 5.0 mph8.0 kmh 29.98 in1015.2 mb 0.00 in0.0 mm 0.00 in0.0 mm 0.00 in0.0 mm
02:51 AM 64.7°F18.2°C 51.1°F10.6°C 61% 1.5 mph SSE2.4 kmh SSE 8.0 mph12.9 kmh 29.97 in1014.9 mb 0.00 in0.0 mm 0.00 in0.0 mm 0.00 in0.0 mm
02:46 AM 64.8°F18.2°C 50.7°F10.4°C 60% 1.6 mph SSE2.6 kmh SSE 8.0 mph12.9 kmh 29.98 in1015.2 mb 0.00 in0.0 mm 0.00 in0.0 mm 0.00 in0.0 mm
02:41 AM 64.8°F18.2°C 50.7°F10.4°C 60% 1.9 mph S3.1 kmh S 5.0 mph8.0 kmh 29.97 in1014.9 mb 0.00 in0.0 mm 0.00 in0.0 mm 0.00 in0.0 mm
02:36 AM 64.8°F18.2°C 51.2°F10.7°C 61% 1.8 mph SW2.9 kmh SW 5.0 mph8.0 kmh 29.98 in1015.2 mb 0.00 in0.0 mm 0.00 in0.0 mm 0.00 in0.0 mm
02:31 AM 64.8°F18.2°C 51.2°F10.7°C 61% 1.6 mph SW2.6 kmh SW 9.0 mph14.5 kmh 29.98 in1015.2 mb 0.00 in0.0 mm 0.00 in0.0 mm 0.00 in0.0 mm
02:26 AM 64.9°F18.3°C 51.3°F10.7°C 61% 1.7 mph SW2.7 kmh SW 9.0 mph14.5 kmh 29.98 in1015.2 mb 0.00 in0.0 mm 0.00 in0.0 mm 0.00 in0.0 mm
02:21 AM 64.9°F18.3°C 51.3°F10.7°C 61% 3.0 mph SW4.8 kmh SW 6.0 mph9.7 kmh 29.97 in1014.9 mb 0.00 in0.0 mm 0.00 in0.0 mm 0.00 in0.0 mm
02:16 AM 64.9°F18.3°C 51.6°F10.9°C 62% 2.6 mph S4.2 kmh S 6.0 mph9.7 kmh 29.97 in1014.9 mb 0.00 in0.0 mm 0.00 in0.0 mm 0.00 in0.0 mm
02:11 AM 65.0°F18.3°C 51.7°F10.9°C 62% 3.1 mph SSE5.0 kmh SSE 7.0 mph11.3 kmh 29.98 in1015.2 mb 0.00 in0.0 mm 0.00 in0.0 mm 0.00 in0.0 mm
02:06 AM 65.1°F18.4°C 51.8°F11.0°C 62% 2.1 mph SW3.4 kmh SW 7.0 mph11.3 kmh 29.98 in1015.2 mb 0.00 in0.0 mm 0.00 in0.0 mm 0.00 in0.0 mm
02:01 AM 65.1°F18.4°C 51.8°F11.0°C 62% 1.6 mph WSW2.6 kmh WSW 10.0 mph16.1 kmh 29.98 in1015.2 mb 0.00 in0.0 mm 0.00 in0.0 mm 0.00 in0.0 mm
01:56 AM 65.2°F18.4°C 51.4°F10.8°C 61% 2.2 mph S3.5 kmh S 10.0 mph16.1 kmh 29.98 in1015.2 mb 0.00 in0.0 mm 0.00 in0.0 mm 0.00 in0.0 mm
01:51 AM 65.3°F18.5°C 51.5°F10.8°C 61% 2.5 mph SSE4.0 kmh SSE 13.0 mph20.9 kmh 29.98 in1015.2 mb 0.00 in0.0 mm 0.00 in0.0 mm 0.00 in0.0 mm
01:46 AM 65.5°F18.6°C 51.2°F10.7°C 60% 2.1 mph SW3.4 kmh SW 13.0 mph20.9 kmh 29.98 in1015.2 mb 0.00 in0.0 mm 0.00 in0.0 mm 0.00 in0.0 mm
01:41 AM 65.6°F18.7°C 51.3°F10.7°C 60% 2.9 mph S4.7 kmh S 12.0 mph19.3 kmh 29.98 in1015.2 mb 0.00 in0.0 mm 0.00 in0.0 mm 0.00 in0.0 mm
01:36 AM 65.5°F18.6°C 51.2°F10.7°C 60% 4.1 mph S6.6 kmh S 9.0 mph14.5 kmh 29.98 in1015.2 mb 0.00 in0.0 mm 0.00 in0.0 mm 0.00 in0.0 mm
01:31 AM 65.4°F18.6°C 51.1°F10.6°C 60% 3.2 mph S5.1 kmh S 15.0 mph24.1 kmh 29.98 in1015.2 mb 0.00 in0.0 mm 0.00 in0.0 mm 0.00 in0.0 mm
01:26 AM 65.2°F18.4°C 51.0°F10.6°C 60% 5.1 mph SSW8.2 kmh SSW 15.0 mph24.1 kmh 29.98 in1015.2 mb 0.00 in0.0 mm 0.00 in0.0 mm 0.00 in0.0 mm
01:21 AM 64.9°F18.3°C 51.1°F10.6°C 61% 2.9 mph S4.7 kmh S 11.0 mph17.7 kmh 29.98 in1015.2 mb 0.00 in0.0 mm 0.00 in0.0 mm 0.00 in0.0 mm
01:16 AM 64.8°F18.2°C 51.5°F10.8°C 62% 2.8 mph SSW4.5 kmh SSW 10.0 mph16.1 kmh 29.98 in1015.2 mb 0.00 in0.0 mm 0.00 in0.0 mm 0.00 in0.0 mm
01:11 AM 64.7°F18.2°C 51.4°F10.8°C 62% 2.4 mph SSE3.9 kmh SSE 9.0 mph14.5 kmh 29.98 in1015.2 mb 0.00 in0.0 mm 0.00 in0.0 mm 0.00 in0.0 mm
01:06 AM 64.7°F18.2°C 51.4°F10.8°C 62% 2.7 mph SE4.3 kmh SE 6.0 mph9.7 kmh 29.98 in1015.2 mb 0.00 in0.0 mm 0.00 in0.0 mm 0.00 in0.0 mm
01:01 AM 64.8°F18.2°C 51.5°F10.8°C 62% 2.5 mph S4.0 kmh S 6.0 mph9.7 kmh 29.98 in1015.2 mb 0.00 in0.0 mm 0.00 in0.0 mm 0.00 in0.0 mm
12:56 AM 64.9°F18.3°C 51.6°F10.9°C 62% 1.9 mph S3.1 kmh S 5.0 mph8.0 kmh 29.98 in1015.2 mb 0.00 in0.0 mm 0.00 in0.0 mm 0.00 in0.0 mm
12:51 AM 64.9°F18.3°C 51.6°F10.9°C 62% 1.9 mph S3.1 kmh S 5.0 mph8.0 kmh 29.98 in1015.2 mb 0.00 in0.0 mm 0.00 in0.0 mm 0.00 in0.0 mm
12:46 AM 65.1°F18.4°C 51.8°F11.0°C 62% 2.5 mph SE4.0 kmh SE 5.0 mph8.0 kmh 29.98 in1015.2 mb 0.00 in0.0 mm 0.00 in0.0 mm 0.00 in0.0 mm
12:41 AM 65.1°F18.4°C 51.3°F10.7°C 61% 2.6 mph S4.2 kmh S 8.0 mph12.9 kmh 29.98 in1015.2 mb 0.00 in0.0 mm 0.00 in0.0 mm 0.00 in0.0 mm
12:36 AM 65.2°F18.4°C 51.4°F10.8°C 61% 3.3 mph S5.3 kmh S 8.0 mph12.9 kmh 29.98 in1015.2 mb 0.00 in0.0 mm 0.00 in0.0 mm 0.00 in0.0 mm
12:30 AM 65.2°F18.4°C 51.4°F10.8°C 61% 3.7 mph S6.0 kmh S 8.0 mph12.9 kmh 29.98 in1015.2 mb 0.00 in0.0 mm 0.00 in0.0 mm 0.00 in0.0 mm
12:25 AM 65.3°F18.5°C 51.1°F10.6°C 60% 3.5 mph S5.6 kmh S 8.0 mph12.9 kmh 29.98 in1015.2 mb 0.00 in0.0 mm 0.00 in0.0 mm 0.00 in0.0 mm
12:20 AM 65.3°F18.5°C 51.1°F10.6°C 60% 2.9 mph S4.7 kmh S 7.0 mph11.3 kmh 29.98 in1015.2 mb 0.00 in0.0 mm 0.00 in0.0 mm 0.00 in0.0 mm
12:15 AM 65.4°F18.6°C 51.1°F10.6°C 60% 2.7 mph SW4.3 kmh SW 5.0 mph8.0 kmh 29.98 in1015.2 mb 0.00 in0.0 mm 0.00 in0.0 mm 0.00 in0.0 mm
12:10 AM 65.5°F18.6°C 50.9°F10.5°C 59% 1.6 mph S2.6 kmh S 6.0 mph9.7 kmh 29.98 in1015.2 mb 0.00 in0.0 mm 0.00 in0.0 mm 0.00 in0.0 mm
12:05 AM 65.6°F18.7°C 51.0°F10.6°C 59% 2.9 mph S4.7 kmh S 6.0 mph9.7 kmh 29.98 in1015.2 mb 0.00 in0.0 mm 0.00 in0.0 mm 0.00 in0.0 mm
12:00 AM 65.8°F18.8°C 51.2°F10.7°C 59% 1.8 mph SSW2.9 kmh SSW 7.0 mph11.3 kmh 29.98 in1015.2 mb 0.00 in0.0 mm 0.00 in0.0 mm 0.00 in0.0 mm